Wind Star — C6CA9 — position and weather

sailwx.info

Track history (hours):
 
Tides and Currents Weather Stations Pressure Air Temp Water Temp Dewpoint Dewpoint Depression Visibility Wind Speed Wind Dir Waves Ship Positions

Wind Star

Operator: Holland America Line

Last reported at 2015-May-30 02:33 UTC. Time now 2015-May-30 02:35 UTC.
Position N 37°52' E 023°39'.

Length 135 m; draft 4.1 m.

Type: Ship. MMSI: 309163000.

Date/timePositionNaut miles runAvg speedWind from/ knotsBaromVisibWave heightAir tempDewpointWater temp
2015-May-30 02:33N 37°52' E 023°39'6 6.0
2015-May-30 01:33N 37°46' E 023°42'6 6.4
2015-May-30 00:33N 37°40' E 023°45'47 6.4
2015-May-29 17:06N 37°31' E 024°44'5 8.7
2015-May-29 16:33N 37°31' E 024°50'9 9.3
2015-May-29 15:33N 37°31' E 025°01'9 9.3
2015-May-29 14:33N 37°29' E 025°13'5 5.1
2015-May-29 13:31N 37°28' E 025°19'0 0.0
2015-May-29 12:31N 37°28' E 025°19'0 0.0
2015-May-29 11:31N 37°28' E 025°19'0 0.0
2015-May-29 10:31N 37°28' E 025°19'0 0.0
2015-May-29 09:31N 37°28' E 025°19'0 0.0
2015-May-29 08:31N 37°28' E 025°19'0 0.0
2015-May-29 07:31N 37°28' E 025°19'0 0.0
2015-May-29 06:31N 37°28' E 025°19'0 0.0
2015-May-29 05:31N 37°28' E 025°19'0 0.0
2015-May-29 04:31N 37°28' E 025°19'1 1.4
2015-May-29 03:34N 37°28' E 025°18'8 8.4
2015-May-29 02:34N 37°24' E 025°08'8 8.0
2015-May-29 01:33N 37°17' E 025°02'7 7.0
2015-May-29 00:33N 37°13' E 024°55'39 7.8
2015-May-28 19:32N 36°37' E 025°16'10 9.8
2015-May-28 18:33N 36°29' E 025°21'5 4.6
2015-May-28 17:33N 36°25' E 025°24'1 0.6
2015-May-28 16:32N 36°25' E 025°25'0 0.2
2015-May-28 15:33N 36°25' E 025°25'0 0.0
2015-May-28 14:33N 36°25' E 025°25'0 0.0
2015-May-28 13:33N 36°25' E 025°25'0 0.2
2015-May-28 12:32N 36°25' E 025°25'1 0.8
2015-May-28 11:33N 36°24' E 025°25'0 0.3
2015-May-28 10:32N 36°24' E 025°25'0 0.1
2015-May-28 09:33N 36°24' E 025°25'0 0.2
2015-May-28 08:33N 36°24' E 025°25'0 0.0
2015-May-28 07:32N 36°24' E 025°25'0 0.0
2015-May-28 06:33N 36°24' E 025°25'0 0.0
2015-May-28 05:34N 36°24' E 025°25'0 0.1
2015-May-28 04:32N 36°24' E 025°25'7 5.0
2015-May-28 03:10N 36°31' E 025°25'5 8.0
2015-May-28 02:33N 36°33' E 025°31'8 7.9
2015-May-28 01:33N 36°34' E 025°40'8 8.3
2015-May-28 00:33N 36°36' E 025°50'8 8.1
2015-May-27 23:33N 36°39' E 025°60'  
2015-May-23 15:06N 40°55' E 028°52'6 9.9
2015-May-23 14:30N 40°59' E 028°58'  
Track history (hours):
 
Tides and Currents Weather Stations Pressure Air Temp Water Temp Dewpoint Dewpoint Depression Visibility Wind Speed Wind Dir Waves Ship Positions

Wind Star

Operator: Holland America Line

Last reported at 2015-May-30 02:33 UTC. Time now 2015-May-30 02:35 UTC.
Position N 37°52' E 023°39'.

Length 135 m; draft 4.1 m.

Type: Ship. MMSI: 309163000.

Date/timePositionNaut miles runAvg speedWind from/ knotsBaromVisibWave heightAir tempDewpointWater temp
2015-May-30 02:33N 37°52' E 023°39'6 6.0
2015-May-30 01:33N 37°46' E 023°42'6 6.4
2015-May-30 00:33N 37°40' E 023°45'47 6.4
2015-May-29 17:06N 37°31' E 024°44'5 8.7
2015-May-29 16:33N 37°31' E 024°50'9 9.3
2015-May-29 15:33N 37°31' E 025°01'9 9.3
2015-May-29 14:33N 37°29' E 025°13'5 5.1
2015-May-29 13:31N 37°28' E 025°19'0 0.0
2015-May-29 12:31N 37°28' E 025°19'0 0.0
2015-May-29 11:31N 37°28' E 025°19'0 0.0
2015-May-29 10:31N 37°28' E 025°19'0 0.0
2015-May-29 09:31N 37°28' E 025°19'0 0.0
2015-May-29 08:31N 37°28' E 025°19'0 0.0
2015-May-29 07:31N 37°28' E 025°19'0 0.0
2015-May-29 06:31N 37°28' E 025°19'0 0.0
2015-May-29 05:31N 37°28' E 025°19'0 0.0
2015-May-29 04:31N 37°28' E 025°19'1 1.4
2015-May-29 03:34N 37°28' E 025°18'8 8.4
2015-May-29 02:34N 37°24' E 025°08'8 8.0
2015-May-29 01:33N 37°17' E 025°02'7 7.0
2015-May-29 00:33N 37°13' E 024°55'39 7.8
2015-May-28 19:32N 36°37' E 025°16'10 9.8
2015-May-28 18:33N 36°29' E 025°21'5 4.6
2015-May-28 17:33N 36°25' E 025°24'1 0.6
2015-May-28 16:32N 36°25' E 025°25'0 0.2
2015-May-28 15:33N 36°25' E 025°25'0 0.0
2015-May-28 14:33N 36°25' E 025°25'0 0.0
2015-May-28 13:33N 36°25' E 025°25'0 0.2
2015-May-28 12:32N 36°25' E 025°25'1 0.8
2015-May-28 11:33N 36°24' E 025°25'0 0.3
2015-May-28 10:32N 36°24' E 025°25'0 0.1
2015-May-28 09:33N 36°24' E 025°25'0 0.2
2015-May-28 08:33N 36°24' E 025°25'0 0.0
2015-May-28 07:32N 36°24' E 025°25'0 0.0
2015-May-28 06:33N 36°24' E 025°25'0 0.0
2015-May-28 05:34N 36°24' E 025°25'0 0.1
2015-May-28 04:32N 36°24' E 025°25'7 5.0
2015-May-28 03:10N 36°31' E 025°25'5 8.0
2015-May-28 02:33N 36°33' E 025°31'8 7.9
2015-May-28 01:33N 36°34' E 025°40'8 8.3
2015-May-28 00:33N 36°36' E 025°50'8 8.1
2015-May-27 23:33N 36°39' E 025°60'  
2015-May-23 15:06N 40°55' E 028°52'6 9.9
2015-May-23 14:30N 40°59' E 028°58'  

Dump ship's entire track history